sensor_id;sensor_type;location;lat;lon;timestamp;pressure;altitude;pressure_sealevel;temperature;humidity
34374;BME280;20637;55.770;37.592;2024-03-22T00:00:20;100126.84;;;4.50;45.84
34374;BME280;20637;55.770;37.592;2024-03-22T00:02:45;100124.66;;;4.44;46.01
34374;BME280;20637;55.770;37.592;2024-03-22T00:05:11;100128.31;;;4.43;45.97
34374;BME280;20637;55.770;37.592;2024-03-22T00:07:37;100124.88;;;4.41;46.07
34374;BME280;20637;55.770;37.592;2024-03-22T00:10:05;100121.72;;;4.36;45.88
34374;BME280;20637;55.770;37.592;2024-03-22T00:12:31;100128.75;;;4.37;46.28
34374;BME280;20637;55.770;37.592;2024-03-22T00:14:57;100128.03;;;4.35;45.91
34374;BME280;20637;55.770;37.592;2024-03-22T00:17:23;100116.59;;;4.32;46.33
34374;BME280;20637;55.770;37.592;2024-03-22T00:19:49;100116.22;;;4.26;46.24
34374;BME280;20637;55.770;37.592;2024-03-22T00:22:14;100121.03;;;4.21;46.39
34374;BME280;20637;55.770;37.592;2024-03-22T00:24:41;100113.03;;;4.21;46.42
34374;BME280;20637;55.770;37.592;2024-03-22T00:27:07;100111.22;;;4.21;46.12
34374;BME280;20637;55.770;37.592;2024-03-22T00:29:32;100110.25;;;4.22;46.50
34374;BME280;20637;55.770;37.592;2024-03-22T00:31:58;100108.78;;;4.18;46.11
34374;BME280;20637;55.770;37.592;2024-03-22T00:34:24;100114.38;;;4.15;46.20
34374;BME280;20637;55.770;37.592;2024-03-22T00:36:49;100111.78;;;4.14;46.63
34374;BME280;20637;55.770;37.592;2024-03-22T00:39:17;100122.47;;;4.14;46.50
34374;BME280;20637;55.770;37.592;2024-03-22T00:41:42;100110.22;;;4.11;46.45
34374;BME280;20637;55.770;37.592;2024-03-22T00:44:08;100111.19;;;4.10;46.38
34374;BME280;20637;55.770;37.592;2024-03-22T00:46:34;100105.97;;;4.09;46.53
34374;BME280;20637;55.770;37.592;2024-03-22T00:49:01;100115.91;;;4.07;46.33
34374;BME280;20637;55.770;37.592;2024-03-22T00:51:26;100116.75;;;4.07;46.74
34374;BME280;20637;55.770;37.592;2024-03-22T00:53:53;100121.25;;;4.07;46.96
34374;BME280;20637;55.770;37.592;2024-03-22T00:56:18;100119.66;;;4.04;46.76
34374;BME280;20637;55.770;37.592;2024-03-22T00:58:44;100117.00;;;4.04;47.14
34374;BME280;20637;55.770;37.592;2024-03-22T01:01:10;100117.97;;;4.03;46.88
34374;BME280;20637;55.770;37.592;2024-03-22T01:03:35;100111.66;;;4.04;47.03
34374;BME280;20637;55.770;37.592;2024-03-22T01:06:01;100108.22;;;4.02;47.30
34374;BME280;20637;55.770;37.592;2024-03-22T01:08:27;100109.94;;;4.03;47.39
34374;BME280;20637;55.770;37.592;2024-03-22T01:10:53;100112.72;;;4.02;47.51
34374;BME280;20637;55.770;37.592;2024-03-22T01:13:19;100107.16;;;4.05;47.69
34374;BME280;20637;55.770;37.592;2024-03-22T01:15:45;100106.75;;;3.98;47.28
34374;BME280;20637;55.770;37.592;2024-03-22T01:18:12;100103.81;;;3.90;47.47
34374;BME280;20637;55.770;37.592;2024-03-22T01:20:37;100098.47;;;3.90;48.00
34374;BME280;20637;55.770;37.592;2024-03-22T01:23:03;100099.94;;;3.94;47.78
34374;BME280;20637;55.770;37.592;2024-03-22T01:25:30;100096.31;;;3.95;47.92
34374;BME280;20637;55.770;37.592;2024-03-22T01:27:56;100090.97;;;3.95;48.20
34374;BME280;20637;55.770;37.592;2024-03-22T01:30:22;100093.03;;;3.92;48.09
34374;BME280;20637;55.770;37.592;2024-03-22T01:32:48;100083.44;;;3.89;47.79
34374;BME280;20637;55.770;37.592;2024-03-22T01:35:14;100082.69;;;3.87;47.81
34374;BME280;20637;55.770;37.592;2024-03-22T01:37:40;100077.81;;;3.81;48.00
34374;BME280;20637;55.770;37.592;2024-03-22T01:40:07;100076.09;;;3.80;48.06
34374;BME280;20637;55.770;37.592;2024-03-22T01:42:33;100071.94;;;3.76;48.35
34374;BME280;20637;55.770;37.592;2024-03-22T01:44:59;100077.53;;;3.73;48.04
34374;BME280;20637;55.770;37.592;2024-03-22T01:47:24;100079.66;;;3.68;48.07
34374;BME280;20637;55.770;37.592;2024-03-22T01:49:51;100073.09;;;3.61;47.93
34374;BME280;20637;55.770;37.592;2024-03-22T01:52:18;100063.72;;;3.55;48.38
34374;BME280;20637;55.770;37.592;2024-03-22T01:54:43;100059.34;;;3.54;48.13
34374;BME280;20637;55.770;37.592;2024-03-22T01:57:09;100064.56;;;3.56;48.44
34374;BME280;20637;55.770;37.592;2024-03-22T01:59:35;100061.88;;;3.56;48.45
34374;BME280;20637;55.770;37.592;2024-03-22T02:02:01;100063.72;;;3.55;48.61
34374;BME280;20637;55.770;37.592;2024-03-22T02:04:28;100069.91;;;3.56;48.67
34374;BME280;20637;55.770;37.592;2024-03-22T02:06:53;100066.16;;;3.58;48.99
34374;BME280;20637;55.770;37.592;2024-03-22T02:09:19;100062.75;;;3.56;48.92
34374;BME280;20637;55.770;37.592;2024-03-22T02:11:47;100061.41;;;3.51;49.14
34374;BME280;20637;55.770;37.592;2024-03-22T02:14:13;100058.94;;;3.48;49.31
34374;BME280;20637;55.770;37.592;2024-03-22T02:16:40;100054.34;;;3.50;49.52
34374;BME280;20637;55.770;37.592;2024-03-22T02:19:06;100051.69;;;3.50;49.45
34374;BME280;20637;55.770;37.592;2024-03-22T02:21:32;100051.16;;;3.45;49.12
34374;BME280;20637;55.770;37.592;2024-03-22T02:23:58;100042.13;;;3.34;49.38
34374;BME280;20637;55.770;37.592;2024-03-22T02:26:24;100046.72;;;3.32;49.55
34374;BME280;20637;55.770;37.592;2024-03-22T02:28:49;100049.28;;;3.34;49.47
34374;BME280;20637;55.770;37.592;2024-03-22T02:31:15;100049.38;;;3.32;49.24
34374;BME280;20637;55.770;37.592;2024-03-22T02:33:40;100039.91;;;3.28;49.25
34374;BME280;20637;55.770;37.592;2024-03-22T02:36:06;100039.69;;;3.31;49.79
34374;BME280;20637;55.770;37.592;2024-03-22T02:38:32;100042.69;;;3.27;49.63
34374;BME280;20637;55.770;37.592;2024-03-22T02:40:58;100049.22;;;3.23;49.53
34374;BME280;20637;55.770;37.592;2024-03-22T02:43:24;100043.38;;;3.18;49.58
34374;BME280;20637;55.770;37.592;2024-03-22T02:45:50;100042.97;;;3.11;49.46
34374;BME280;20637;55.770;37.592;2024-03-22T02:48:16;100031.66;;;3.08;50.17
34374;BME280;20637;55.770;37.592;2024-03-22T02:50:41;100032.53;;;3.08;49.88
34374;BME280;20637;55.770;37.592;2024-03-22T02:53:08;100035.81;;;3.12;50.30
34374;BME280;20637;55.770;37.592;2024-03-22T02:55:40;100030.59;;;3.10;50.28
34374;BME280;20637;55.770;37.592;2024-03-22T02:58:07;100016.63;;;3.07;50.39
34374;BME280;20637;55.770;37.592;2024-03-22T03:00:37;100024.00;;;3.03;50.30
34374;BME280;20637;55.770;37.592;2024-03-22T03:03:07;100018.75;;;3.02;50.43
34374;BME280;20637;55.770;37.592;2024-03-22T03:05:34;100027.13;;;2.97;50.37
34374;BME280;20637;55.770;37.592;2024-03-22T03:08:02;100027.78;;;2.88;50.61
34374;BME280;20637;55.770;37.592;2024-03-22T03:10:29;100034.38;;;2.82;50.64
34374;BME280;20637;55.770;37.592;2024-03-22T03:12:55;100027.78;;;2.75;50.78
34374;BME280;20637;55.770;37.592;2024-03-22T03:15:21;100029.72;;;2.73;50.87
34374;BME280;20637;55.770;37.592;2024-03-22T03:17:47;100025.13;;;2.75;51.25
34374;BME280;20637;55.770;37.592;2024-03-22T03:20:13;100028.19;;;2.82;51.23
34374;BME280;20637;55.770;37.592;2024-03-22T03:22:40;100029.69;;;2.86;51.51
34374;BME280;20637;55.770;37.592;2024-03-22T03:25:07;100016.34;;;2.86;51.28
34374;BME280;20637;55.770;37.592;2024-03-22T03:27:34;100013.69;;;2.86;51.10
34374;BME280;20637;55.770;37.592;2024-03-22T03:30:00;100015.72;;;2.82;51.34
34374;BME280;20637;55.770;37.592;2024-03-22T03:32:27;100006.38;;;2.77;51.71
34374;BME280;20637;55.770;37.592;2024-03-22T03:34:52;100007.31;;;2.76;51.48
34374;BME280;20637;55.770;37.592;2024-03-22T03:37:18;100004.56;;;2.77;51.79
34374;BME280;20637;55.770;37.592;2024-03-22T03:39:44;100003.25;;;2.83;51.98
34374;BME280;20637;55.770;37.592;2024-03-22T03:42:10;100004.00;;;2.85;51.76
34374;BME280;20637;55.770;37.592;2024-03-22T03:44:36;100005.06;;;2.82;52.15
34374;BME280;20637;55.770;37.592;2024-03-22T03:47:02;99996.66;;;2.76;52.01
34374;BME280;20637;55.770;37.592;2024-03-22T03:49:28;99991.78;;;2.70;51.97
34374;BME280;20637;55.770;37.592;2024-03-22T03:51:54;100001.69;;;2.68;52.42
34374;BME280;20637;55.770;37.592;2024-03-22T03:54:19;100008.50;;;2.72;52.32
34374;BME280;20637;55.770;37.592;2024-03-22T03:56:45;100004.03;;;2.72;52.36
34374;BME280;20637;55.770;37.592;2024-03-22T03:59:11;99996.97;;;2.71;52.47
34374;BME280;20637;55.770;37.592;2024-03-22T04:01:36;99991.78;;;2.70;52.78
34374;BME280;20637;55.770;37.592;2024-03-22T04:04:02;99994.44;;;2.70;52.75
34374;BME280;20637;55.770;37.592;2024-03-22T04:06:28;99990.78;;;2.71;52.76
34374;BME280;20637;55.770;37.592;2024-03-22T04:08:54;99992.28;;;2.75;52.71
34374;BME280;20637;55.770;37.592;2024-03-22T04:11:20;99992.81;;;2.80;52.58
34374;BME280;20637;55.770;37.592;2024-03-22T04:13:45;99988.34;;;2.80;52.84
34374;BME280;20637;55.770;37.592;2024-03-22T04:16:13;99988.19;;;2.82;52.88
34374;BME280;20637;55.770;37.592;2024-03-22T04:18:39;99996.00;;;2.85;53.22
34374;BME280;20637;55.770;37.592;2024-03-22T04:21:05;99984.47;;;2.84;52.82
34374;BME280;20637;55.770;37.592;2024-03-22T04:23:31;99975.53;;;2.85;53.06
34374;BME280;20637;55.770;37.592;2024-03-22T04:26:01;99979.78;;;2.88;53.05
34374;BME280;20637;55.770;37.592;2024-03-22T04:28:27;99985.34;;;2.85;53.22
34374;BME280;20637;55.770;37.592;2024-03-22T04:33:27;99979.31;;;2.94;53.00
34374;BME280;20637;55.770;37.592;2024-03-22T04:35:54;99983.78;;;2.94;52.96
34374;BME280;20637;55.770;37.592;2024-03-22T04:38:19;99986.19;;;2.85;53.22
34374;BME280;20637;55.770;37.592;2024-03-22T04:40:45;99991.06;;;2.92;53.29
34374;BME280;20637;55.770;37.592;2024-03-22T04:43:11;99988.41;;;2.92;53.43
34374;BME280;20637;55.770;37.592;2024-03-22T04:45:37;99985.75;;;2.92;52.94
34374;BME280;20637;55.770;37.592;2024-03-22T04:48:04;99990.13;;;2.93;53.16
34374;BME280;20637;55.770;37.592;2024-03-22T04:50:30;99983.59;;;2.97;53.24
34374;BME280;20637;55.770;37.592;2024-03-22T04:52:57;99986.03;;;3.00;53.13
34374;BME280;20637;55.770;37.592;2024-03-22T04:55:22;99986.66;;;3.03;53.02
34374;BME280;20637;55.770;37.592;2024-03-22T04:57:49;99987.38;;;3.05;52.95
34374;BME280;20637;55.770;37.592;2024-03-22T05:00:15;99981.09;;;3.06;53.43
34374;BME280;20637;55.770;37.592;2024-03-22T05:02:40;99986.31;;;3.08;53.37
34374;BME280;20637;55.770;37.592;2024-03-22T05:05:06;99980.03;;;3.09;53.32
34374;BME280;20637;55.770;37.592;2024-03-22T05:07:35;99981.84;;;3.08;53.50
34374;BME280;20637;55.770;37.592;2024-03-22T05:10:02;99975.75;;;3.06;53.15
34374;BME280;20637;55.770;37.592;2024-03-22T05:12:30;99967.53;;;3.09;53.47
34374;BME280;20637;55.770;37.592;2024-03-22T05:14:56;99976.16;;;3.13;53.14
34374;BME280;20637;55.770;37.592;2024-03-22T05:17:22;99977.53;;;3.18;53.20
34374;BME280;20637;55.770;37.592;2024-03-22T05:19:47;99981.06;;;3.19;52.99
34374;BME280;20637;55.770;37.592;2024-03-22T05:22:13;99985.53;;;3.18;53.29
34374;BME280;20637;55.770;37.592;2024-03-22T05:24:39;99973.28;;;3.16;53.32
34374;BME280;20637;55.770;37.592;2024-03-22T05:27:04;99970.72;;;3.14;53.00
34374;BME280;20637;55.770;37.592;2024-03-22T05:29:30;99963.34;;;3.18;53.19
34374;BME280;20637;55.770;37.592;2024-03-22T05:31:56;99966.63;;;3.21;53.04
34374;BME280;20637;55.770;37.592;2024-03-22T05:34:22;99960.22;;;3.24;53.38
34374;BME280;20637;55.770;37.592;2024-03-22T05:36:48;99969.47;;;3.31;53.33
34374;BME280;20637;55.770;37.592;2024-03-22T05:39:14;99961.97;;;3.36;52.85
34374;BME280;20637;55.770;37.592;2024-03-22T05:41:40;99963.44;;;3.40;52.94
34374;BME280;20637;55.770;37.592;2024-03-22T05:44:07;99954.13;;;3.46;52.80
34374;BME280;20637;55.770;37.592;2024-03-22T05:46:32;99950.97;;;3.52;52.93
34374;BME280;20637;55.770;37.592;2024-03-22T05:48:58;99950.25;;;3.50;52.86
34374;BME280;20637;55.770;37.592;2024-03-22T05:51:26;99946.63;;;3.51;52.87
34374;BME280;20637;55.770;37.592;2024-03-22T05:53:52;99944.44;;;3.56;53.06
34374;BME280;20637;55.770;37.592;2024-03-22T05:56:18;99948.72;;;3.58;52.76
34374;BME280;20637;55.770;37.592;2024-03-22T05:58:44;99946.53;;;3.63;52.88
34374;BME280;20637;55.770;37.592;2024-03-22T06:01:09;99944.38;;;3.68;52.60
34374;BME280;20637;55.770;37.592;2024-03-22T06:03:35;99936.88;;;3.73;52.25
34374;BME280;20637;55.770;37.592;2024-03-22T06:06:01;99936.53;;;3.78;52.58
34374;BME280;20637;55.770;37.592;2024-03-22T06:08:27;99941.63;;;3.81;52.10
34374;BME280;20637;55.770;37.592;2024-03-22T06:10:54;99935.06;;;3.85;52.53
34374;BME280;20637;55.770;37.592;2024-03-22T06:13:20;99940.78;;;3.92;52.31
34374;BME280;20637;55.770;37.592;2024-03-22T06:15:48;99933.03;;;4.00;52.07
34374;BME280;20637;55.770;37.592;2024-03-22T06:18:14;99929.03;;;4.05;52.21
34374;BME280;20637;55.770;37.592;2024-03-22T06:20:40;99918.72;;;4.12;52.07
34374;BME280;20637;55.770;37.592;2024-03-22T06:23:08;99919.09;;;4.18;52.04
34374;BME280;20637;55.770;37.592;2024-03-22T06:25:34;99924.06;;;4.23;51.94
34374;BME280;20637;55.770;37.592;2024-03-22T06:27:59;99913.13;;;4.26;52.22
34374;BME280;20637;55.770;37.592;2024-03-22T06:30:25;99917.50;;;4.27;51.94
34374;BME280;20637;55.770;37.592;2024-03-22T06:32:51;99917.63;;;4.25;52.08
34374;BME280;20637;55.770;37.592;2024-03-22T06:35:17;99910.34;;;4.27;52.15
34374;BME280;20637;55.770;37.592;2024-03-22T06:37:43;99914.22;;;4.35;52.55
34374;BME280;20637;55.770;37.592;2024-03-22T06:40:09;99914.47;;;4.43;52.94
34374;BME280;20637;55.770;37.592;2024-03-22T06:42:35;99922.84;;;4.49;52.90
34374;BME280;20637;55.770;37.592;2024-03-22T06:45:02;99922.38;;;4.55;52.92
34374;BME280;20637;55.770;37.592;2024-03-22T06:47:30;99905.81;;;4.61;52.29
34374;BME280;20637;55.770;37.592;2024-03-22T06:49:56;99908.84;;;4.68;52.59
34374;BME280;20637;55.770;37.592;2024-03-22T06:52:21;99906.53;;;4.74;52.45
34374;BME280;20637;55.770;37.592;2024-03-22T06:54:47;99902.50;;;4.80;52.48
34374;BME280;20637;55.770;37.592;2024-03-22T06:57:13;99904.81;;;4.85;52.14
34374;BME280;20637;55.770;37.592;2024-03-22T06:59:38;99905.41;;;4.88;52.12
34374;BME280;20637;55.770;37.592;2024-03-22T07:02:04;99902.94;;;4.96;52.37
34374;BME280;20637;55.770;37.592;2024-03-22T07:04:29;99901.34;;;5.05;52.22
34374;BME280;20637;55.770;37.592;2024-03-22T07:06:55;99907.03;;;5.11;52.17
34374;BME280;20637;55.770;37.592;2024-03-22T07:09:21;99909.06;;;5.19;51.71
34374;BME280;20637;55.770;37.592;2024-03-22T07:11:47;99893.94;;;5.29;51.24
34374;BME280;20637;55.770;37.592;2024-03-22T07:14:12;99888.09;;;5.35;50.82
34374;BME280;20637;55.770;37.592;2024-03-22T07:16:38;99888.41;;;5.42;50.02
34374;BME280;20637;55.770;37.592;2024-03-22T07:19:05;99879.72;;;5.49;50.09
34374;BME280;20637;55.770;37.592;2024-03-22T07:21:31;99880.88;;;5.56;49.55
34374;BME280;20637;55.770;37.592;2024-03-22T07:23:57;99884.63;;;5.65;49.64
34374;BME280;20637;55.770;37.592;2024-03-22T07:26:23;99874.97;;;5.73;48.97
34374;BME280;20637;55.770;37.592;2024-03-22T07:28:48;99881.38;;;5.82;48.97
34374;BME280;20637;55.770;37.592;2024-03-22T07:31:14;99877.19;;;5.89;48.40
34374;BME280;20637;55.770;37.592;2024-03-22T07:33:40;99880.47;;;5.93;47.55
34374;BME280;20637;55.770;37.592;2024-03-22T07:36:06;99878.09;;;5.99;47.05
34374;BME280;20637;55.770;37.592;2024-03-22T07:38:32;99869.94;;;6.01;47.29
34374;BME280;20637;55.770;37.592;2024-03-22T07:40:58;99866.00;;;6.05;47.23
34374;BME280;20637;55.770;37.592;2024-03-22T07:43:24;99864.47;;;6.12;47.00
34374;BME280;20637;55.770;37.592;2024-03-22T07:45:49;99865.63;;;6.19;46.77
34374;BME280;20637;55.770;37.592;2024-03-22T07:48:15;99850.00;;;6.24;46.14
34374;BME280;20637;55.770;37.592;2024-03-22T07:50:41;99847.59;;;6.21;45.23
34374;BME280;20637;55.770;37.592;2024-03-22T07:53:07;99841.28;;;6.32;45.38
34374;BME280;20637;55.770;37.592;2024-03-22T07:55:33;99837.78;;;6.41;44.66
34374;BME280;20637;55.770;37.592;2024-03-22T07:57:59;99833.00;;;6.54;44.22
34374;BME280;20637;55.770;37.592;2024-03-22T08:00:24;99836.13;;;6.59;42.88
34374;BME280;20637;55.770;37.592;2024-03-22T08:02:51;99832.75;;;6.66;43.41
34374;BME280;20637;55.770;37.592;2024-03-22T08:05:17;99823.59;;;6.79;43.66
34374;BME280;20637;55.770;37.592;2024-03-22T08:07:43;99823.03;;;6.85;43.93
34374;BME280;20637;55.770;37.592;2024-03-22T08:10:11;99818.22;;;6.88;42.28
34374;BME280;20637;55.770;37.592;2024-03-22T08:12:37;99811.47;;;6.94;42.01
34374;BME280;20637;55.770;37.592;2024-03-22T08:15:03;99808.94;;;7.02;41.78
34374;BME280;20637;55.770;37.592;2024-03-22T08:17:32;99799.75;;;7.14;42.13
34374;BME280;20637;55.770;37.592;2024-03-22T08:19:57;99799.84;;;7.32;42.35
34374;BME280;20637;55.770;37.592;2024-03-22T08:22:23;99792.88;;;7.58;42.33
34374;BME280;20637;55.770;37.592;2024-03-22T08:24:49;99789.81;;;7.80;42.33
34374;BME280;20637;55.770;37.592;2024-03-22T08:27:14;99784.97;;;7.93;41.20
34374;BME280;20637;55.770;37.592;2024-03-22T08:29:40;99770.56;;;7.94;41.17
34374;BME280;20637;55.770;37.592;2024-03-22T08:32:07;99780.59;;;7.92;41.04
34374;BME280;20637;55.770;37.592;2024-03-22T08:34:32;99770.88;;;7.82;39.61
34374;BME280;20637;55.770;37.592;2024-03-22T08:36:58;99768.31;;;7.80;40.38
34374;BME280;20637;55.770;37.592;2024-03-22T08:39:24;99762.69;;;7.83;41.09
34374;BME280;20637;55.770;37.592;2024-03-22T08:41:51;99760.09;;;7.91;40.94
34374;BME280;20637;55.770;37.592;2024-03-22T08:44:17;99763.16;;;7.96;40.23
34374;BME280;20637;55.770;37.592;2024-03-22T08:46:43;99755.22;;;8.04;39.68
34374;BME280;20637;55.770;37.592;2024-03-22T08:49:09;99753.88;;;8.18;38.73
34374;BME280;20637;55.770;37.592;2024-03-22T08:51:34;99755.41;;;8.21;38.24
34374;BME280;20637;55.770;37.592;2024-03-22T08:54:00;99756.28;;;8.21;38.54
34374;BME280;20637;55.770;37.592;2024-03-22T08:56:29;99751.75;;;8.22;38.02
34374;BME280;20637;55.770;37.592;2024-03-22T08:58:55;99753.88;;;8.18;37.44
34374;BME280;20637;55.770;37.592;2024-03-22T09:01:21;99749.81;;;8.14;36.94
34374;BME280;20637;55.770;37.592;2024-03-22T09:03:48;99747.97;;;8.14;36.76
34374;BME280;20637;55.770;37.592;2024-03-22T09:06:15;99747.03;;;8.24;36.49
34374;BME280;20637;55.770;37.592;2024-03-22T09:08:40;99744.78;;;8.29;37.18
34374;BME280;20637;55.770;37.592;2024-03-22T09:11:06;99732.31;;;8.28;36.92
34374;BME280;20637;55.770;37.592;2024-03-22T09:13:32;99727.78;;;8.28;36.15
34374;BME280;20637;55.770;37.592;2024-03-22T09:16:00;99722.72;;;8.25;36.27
34374;BME280;20637;55.770;37.592;2024-03-22T09:18:26;99722.13;;;8.31;35.78
34374;BME280;20637;55.770;37.592;2024-03-22T09:20:52;99713.91;;;8.33;35.99
34374;BME280;20637;55.770;37.592;2024-03-22T09:23:18;99711.00;;;8.44;36.08
34374;BME280;20637;55.770;37.592;2024-03-22T09:25:47;99707.09;;;8.56;36.19
34374;BME280;20637;55.770;37.592;2024-03-22T09:28:14;99713.16;;;8.58;35.90
34374;BME280;20637;55.770;37.592;2024-03-22T09:30:40;99713.84;;;8.60;35.85
34374;BME280;20637;55.770;37.592;2024-03-22T09:33:06;99719.78;;;8.64;34.92
34374;BME280;20637;55.770;37.592;2024-03-22T09:35:35;99720.31;;;8.67;33.97
34374;BME280;20637;55.770;37.592;2024-03-22T09:38:01;99717.38;;;8.60;32.89
34374;BME280;20637;55.770;37.592;2024-03-22T09:40:28;99712.91;;;8.51;32.56
34374;BME280;20637;55.770;37.592;2024-03-22T09:42:58;99707.22;;;8.54;33.83
34374;BME280;20637;55.770;37.592;2024-03-22T09:45:28;99712.28;;;8.57;33.28
34374;BME280;20637;55.770;37.592;2024-03-22T09:47:56;99706.88;;;8.49;33.76
34374;BME280;20637;55.770;37.592;2024-03-22T09:50:22;99713.78;;;8.52;34.02
34374;BME280;20637;55.770;37.592;2024-03-22T09:52:48;99700.00;;;8.55;33.37
34374;BME280;20637;55.770;37.592;2024-03-22T09:55:17;99704.16;;;8.67;33.75
34374;BME280;20637;55.770;37.592;2024-03-22T09:57:44;99709.75;;;8.74;34.55
34374;BME280;20637;55.770;37.592;2024-03-22T10:00:11;99710.28;;;8.77;35.16
34374;BME280;20637;55.770;37.592;2024-03-22T10:02:39;99708.38;;;8.87;34.58
34374;BME280;20637;55.770;37.592;2024-03-22T10:05:06;99701.38;;;8.94;34.89
34374;BME280;20637;55.770;37.592;2024-03-22T10:07:32;99703.41;;;9.00;35.09
34374;BME280;20637;55.770;37.592;2024-03-22T10:09:58;99694.34;;;9.01;34.59
34374;BME280;20637;55.770;37.592;2024-03-22T10:12:24;99701.91;;;8.98;34.79
34374;BME280;20637;55.770;37.592;2024-03-22T10:14:53;99705.06;;;8.93;35.27
34374;BME280;20637;55.770;37.592;2024-03-22T10:17:19;99696.59;;;8.88;35.37
34374;BME280;20637;55.770;37.592;2024-03-22T10:19:45;99687.63;;;8.80;35.42
34374;BME280;20637;55.770;37.592;2024-03-22T10:22:11;99681.75;;;8.84;36.36
34374;BME280;20637;55.770;37.592;2024-03-22T10:24:36;99676.09;;;8.87;36.47
34374;BME280;20637;55.770;37.592;2024-03-22T10:27:02;99668.69;;;8.89;36.33
34374;BME280;20637;55.770;37.592;2024-03-22T10:29:28;99667.22;;;8.95;36.48
34374;BME280;20637;55.770;37.592;2024-03-22T10:31:55;99666.78;;;9.07;37.24
34374;BME280;20637;55.770;37.592;2024-03-22T10:34:21;99651.91;;;9.21;36.64
34374;BME280;20637;55.770;37.592;2024-03-22T10:36:49;99656.19;;;9.32;36.18
34374;BME280;20637;55.770;37.592;2024-03-22T10:39:17;99653.00;;;9.36;36.92
34374;BME280;20637;55.770;37.592;2024-03-22T10:41:46;99654.53;;;9.39;36.62
34374;BME280;20637;55.770;37.592;2024-03-22T10:44:14;99645.44;;;9.40;36.79
34374;BME280;20637;55.770;37.592;2024-03-22T10:46:45;99638.69;;;9.36;37.15
34374;BME280;20637;55.770;37.592;2024-03-22T10:49:16;99637.16;;;9.33;37.64
34374;BME280;20637;55.770;37.592;2024-03-22T10:51:45;99636.84;;;9.36;37.25
34374;BME280;20637;55.770;37.592;2024-03-22T10:54:17;99624.75;;;9.40;36.75
34374;BME280;20637;55.770;37.592;2024-03-22T10:56:44;99621.06;;;9.41;35.89
34374;BME280;20637;55.770;37.592;2024-03-22T10:59:18;99622.38;;;9.37;35.71
34374;BME280;20637;55.770;37.592;2024-03-22T11:01:46;99628.81;;;9.44;36.19
34374;BME280;20637;55.770;37.592;2024-03-22T11:04:14;99612.88;;;9.59;37.10
34374;BME280;20637;55.770;37.592;2024-03-22T11:06:40;99614.63;;;9.76;36.62
34374;BME280;20637;55.770;37.592;2024-03-22T11:09:08;99608.22;;;9.85;36.81
34374;BME280;20637;55.770;37.592;2024-03-22T11:11:35;99611.09;;;9.84;36.57
34374;BME280;20637;55.770;37.592;2024-03-22T11:14:03;99605.03;;;9.90;36.75
34374;BME280;20637;55.770;37.592;2024-03-22T11:16:29;99602.19;;;9.91;35.78
34374;BME280;20637;55.770;37.592;2024-03-22T11:18:55;99599.44;;;9.75;35.72
34374;BME280;20637;55.770;37.592;2024-03-22T11:21:21;99594.06;;;9.75;36.03
34374;BME280;20637;55.770;37.592;2024-03-22T11:23:47;99592.69;;;9.71;35.37
34374;BME280;20637;55.770;37.592;2024-03-22T11:26:13;99588.66;;;9.67;35.75
34374;BME280;20637;55.770;37.592;2024-03-22T11:28:39;99585.81;;;9.77;36.08
34374;BME280;20637;55.770;37.592;2024-03-22T11:31:05;99578.25;;;9.80;35.82
34374;BME280;20637;55.770;37.592;2024-03-22T11:33:31;99564.94;;;9.87;35.92
34374;BME280;20637;55.770;37.592;2024-03-22T11:36:01;99571.88;;;9.97;35.62
34374;BME280;20637;55.770;37.592;2024-03-22T11:38:27;99571.22;;;10.03;36.17
34374;BME280;20637;55.770;37.592;2024-03-22T11:40:55;99559.91;;;10.08;36.13
34374;BME280;20637;55.770;37.592;2024-03-22T11:43:21;99561.25;;;10.04;35.89
34374;BME280;20637;55.770;37.592;2024-03-22T11:45:47;99552.16;;;9.97;35.89
34374;BME280;20637;55.770;37.592;2024-03-22T11:48:13;99545.59;;;9.91;36.31
34374;BME280;20637;55.770;37.592;2024-03-22T11:50:39;99548.63;;;9.88;35.72
34374;BME280;20637;55.770;37.592;2024-03-22T11:53:07;99535.78;;;9.82;36.15
34374;BME280;20637;55.770;37.592;2024-03-22T11:55:35;99522.47;;;9.73;36.33
34374;BME280;20637;55.770;37.592;2024-03-22T11:58:01;99521.44;;;9.74;36.90
34374;BME280;20637;55.770;37.592;2024-03-22T12:00:27;99520.28;;;9.76;36.54
34374;BME280;20637;55.770;37.592;2024-03-22T12:02:53;99501.56;;;9.75;36.93
34374;BME280;20637;55.770;37.592;2024-03-22T12:05:20;99511.84;;;9.79;37.56
34374;BME280;20637;55.770;37.592;2024-03-22T12:07:46;99509.00;;;9.89;37.91
34374;BME280;20637;55.770;37.592;2024-03-22T12:10:12;99505.66;;;10.03;38.24
34374;BME280;20637;55.770;37.592;2024-03-22T12:12:39;99498.06;;;10.07;37.68
34374;BME280;20637;55.770;37.592;2024-03-22T12:15:05;99482.88;;;9.97;37.96
34374;BME280;20637;55.770;37.592;2024-03-22T12:17:31;99482.22;;;9.95;37.98
34374;BME280;20637;55.770;37.592;2024-03-22T12:19:57;99471.59;;;9.94;38.39
34374;BME280;20637;55.770;37.592;2024-03-22T12:22:22;99466.03;;;9.87;38.74
34374;BME280;20637;55.770;37.592;2024-03-22T12:24:51;99459.13;;;9.93;38.40
34374;BME280;20637;55.770;37.592;2024-03-22T12:27:16;99456.78;;;9.98;38.20
34374;BME280;20637;55.770;37.592;2024-03-22T12:29:42;99441.59;;;9.97;38.20
34374;BME280;20637;55.770;37.592;2024-03-22T12:32:09;99440.75;;;10.04;38.40
34374;BME280;20637;55.770;37.592;2024-03-22T12:34:35;99441.47;;;10.15;38.46
34374;BME280;20637;55.770;37.592;2024-03-22T12:37:02;99444.31;;;10.21;38.18
34374;BME280;20637;55.770;37.592;2024-03-22T12:39:28;99442.63;;;10.20;37.29
34374;BME280;20637;55.770;37.592;2024-03-22T12:41:54;99438.03;;;10.13;37.74
34374;BME280;20637;55.770;37.592;2024-03-22T12:44:20;99427.44;;;10.11;37.43
34374;BME280;20637;55.770;37.592;2024-03-22T12:46:46;99431.19;;;10.18;37.99
34374;BME280;20637;55.770;37.592;2024-03-22T12:49:12;99415.44;;;10.46;37.73
34374;BME280;20637;55.770;37.592;2024-03-22T12:51:38;99415.22;;;10.56;38.10
34374;BME280;20637;55.770;37.592;2024-03-22T12:54:04;99415.75;;;10.43;36.75